CSCL Genoa — V2OH2 — position and weather

sailwx.info

Track history (hours):
 
Tides and Currents Weather Stations Pressure Air Temp Water Temp Dewpoint Dewpoint Depression Visibility Wind Speed Wind Dir Waves Ship Positions

CSCL Genoa

Last reported at 2016-Jun-28 21:25 UTC. Time now 2016-Jun-29 21:53 UTC.
Position N 01°56' E 102°18'.

Length 208 m; beam 32 m; draft 11.5 m.

Type: Ship. MMSI: 304528000.

Date/timePositionNaut miles runAvg speedWind from/ knotsBaromVisibWave heightAir tempDewpointWater temp
2016-Jun-28 21:25N 01°56' E 102°18'7 7.8
2016-Jun-28 20:33N 01°53' E 102°24'7 7.4
2016-Jun-28 19:33N 01°51' E 102°31'7 7.1
2016-Jun-28 18:33N 01°48' E 102°37'7 7.0
2016-Jun-28 17:33N 01°45' E 102°44'8 7.5
2016-Jun-28 16:33N 01°42' E 102°51'8 8.0
2016-Jun-28 15:32N 01°39' E 102°58'47 1.1
2016-Jun-26 20:04N 01°12' E 103°37'5 7.7
2016-Jun-26 19:26N 01°13' E 103°41'6 6.4
2016-Jun-26 18:30N 01°15' E 103°47'0 0.0
2016-Jun-26 17:30N 01°15' E 103°47'0 0.0
2016-Jun-26 16:12N 01°15' E 103°47'0 0.0
2016-Jun-26 15:30N 01°15' E 103°47'0 0.0
2016-Jun-26 14:30N 01°15' E 103°47'0 0.0
2016-Jun-26 13:30N 01°15' E 103°47'0 0.0
2016-Jun-26 12:24N 01°15' E 103°47'0 0.0
2016-Jun-26 10:15N 01°15' E 103°47'0 0.2
2016-Jun-26 08:33N 01°15' E 103°47'6 6.0
2016-Jun-26 07:33N 01°13' E 103°53'1010.4
2016-Jun-26 06:33N 01°16' E 104°03'  
2016-Jun-20 09:33N 01°14' E 103°58'1313.2
2016-Jun-20 08:33N 01°08' E 103°46'19 1.7
2016-Jun-19 21:21N 01°21' E 103°33'65 5.1
2016-Jun-19 08:28N 01°44' E 102°32'1314.4
2016-Jun-19 07:33N 01°50' E 102°20'  
Track history (hours):
 
Tides and Currents Weather Stations Pressure Air Temp Water Temp Dewpoint Dewpoint Depression Visibility Wind Speed Wind Dir Waves Ship Positions

CSCL Genoa

Last reported at 2016-Jun-28 21:25 UTC. Time now 2016-Jun-29 21:53 UTC.
Position N 01°56' E 102°18'.

Length 208 m; beam 32 m; draft 11.5 m.

Type: Ship. MMSI: 304528000.

Date/timePositionNaut miles runAvg speedWind from/ knotsBaromVisibWave heightAir tempDewpointWater temp
2016-Jun-28 21:25N 01°56' E 102°18'7 7.8
2016-Jun-28 20:33N 01°53' E 102°24'7 7.4
2016-Jun-28 19:33N 01°51' E 102°31'7 7.1
2016-Jun-28 18:33N 01°48' E 102°37'7 7.0
2016-Jun-28 17:33N 01°45' E 102°44'8 7.5
2016-Jun-28 16:33N 01°42' E 102°51'8 8.0
2016-Jun-28 15:32N 01°39' E 102°58'47 1.1
2016-Jun-26 20:04N 01°12' E 103°37'5 7.7
2016-Jun-26 19:26N 01°13' E 103°41'6 6.4
2016-Jun-26 18:30N 01°15' E 103°47'0 0.0
2016-Jun-26 17:30N 01°15' E 103°47'0 0.0
2016-Jun-26 16:12N 01°15' E 103°47'0 0.0
2016-Jun-26 15:30N 01°15' E 103°47'0 0.0
2016-Jun-26 14:30N 01°15' E 103°47'0 0.0
2016-Jun-26 13:30N 01°15' E 103°47'0 0.0
2016-Jun-26 12:24N 01°15' E 103°47'0 0.0
2016-Jun-26 10:15N 01°15' E 103°47'0 0.2
2016-Jun-26 08:33N 01°15' E 103°47'6 6.0
2016-Jun-26 07:33N 01°13' E 103°53'1010.4
2016-Jun-26 06:33N 01°16' E 104°03'  
2016-Jun-20 09:33N 01°14' E 103°58'1313.2
2016-Jun-20 08:33N 01°08' E 103°46'19 1.7
2016-Jun-19 21:21N 01°21' E 103°33'65 5.1
2016-Jun-19 08:28N 01°44' E 102°32'1314.4
2016-Jun-19 07:33N 01°50' E 102°20'  

Dump ship's entire track history